Ridge, Texas
Current Conditions -  °F | °C
As of 6:15 PM on Sunday 23 Nov 2014 (Local Time) from KLHB Reporting Station
Clear Clear  
Wind Chill: 69°   Ceiling: Unl
Heat Index: 69°   Visibility: 10mi
Dew Point: 46°   Wind: 6mph
Humidity: 43%   Direction: 220°SW
Pressure: 29.57"   Gusts: NA
Location:  31.0654°N, 96.4194°W
Report Text: KLHB 240015Z AUTO 22005KT 10SM CLR 21/08 A2957 RMK AO2 T02070077
Loading
Personal Weather Stations






























Interactive Weather Map New forecast layout! Learn more

10-Day Weather Forecast

Advertisements
Track Severe Weather on mobile